Latest Weather Observations for Marree Airport

IDS60801

Issued at 6:34 pm CDT Wednesday 4 March 2015 (issued every 30 minutes, with the page automatically refreshed every 10 minutes)

About weather observations | Map of weather stations | Latest weather observations for SA | Other Formats
Station Details ID: 017126 Name: MARREE AERO Lat: -29.66 Lon: 138.07 Height: 50.0 m
Data from the previous 72 hours. | See also: Recent months for locations in South Australia
Date/Time
CDT
Temp
°C
App
Temp
°C
Dew
Point
Rel
Hum
%
Delta-T
°C
Wind Press
QNH
hPa
Press
MSL
hPa
Rain
since 9 am
mm
Dir
 
Spd
km/h
Gust
km/h
Spd
kts
Gust
kts
04/06:30pm 33.5 27.7 11.4 26 13.0 SSW 33 41 18 22 1013.5 - 0.0
04/06:00pm 34.3 29.0 11.4 25 13.5 SSW 30 37 16 20 1013.2 1012.9 0.0
04/05:30pm 35.0 29.9 12.0 25 13.7 SSW 30 37 16 20 1012.9 - 0.0
04/05:00pm 36.6 32.9 11.4 22 15.0 SSW 22 33 12 18 1012.7 - 0.0
04/04:30pm 36.2 31.4 10.4 21 15.1 SSW 26 39 14 21 1012.8 - 0.0
04/04:00pm 36.7 33.5 10.1 20 15.5 S 17 28 9 15 1013.1 - 0.0
04/03:30pm 35.6 31.6 9.2 20 15.1 SSW 20 32 11 17 1013.4 - 0.0
04/03:00pm 36.3 31.9 9.0 19 15.7 SSW 22 37 12 20 1013.6 1013.3 0.0
04/02:30pm 35.5 32.6 8.3 19 15.4 S 13 22 7 12 1014.1 - 0.0
04/02:00pm 35.1 32.4 8.8 20 15.0 S 13 28 7 15 1014.4 - 0.0
04/01:30pm 34.8 33.3 8.5 20 14.9 SE 6 11 3 6 1014.6 - 0.0
04/01:00pm 34.0 31.4 7.9 20 14.6 SSE 11 20 6 11 1015.0 - 0.0
04/12:30pm 34.2 32.8 8.8 21 14.4 S 6 17 3 9 1015.4 - 0.0
04/12:00pm 33.4 30.4 9.4 23 13.7 S 15 20 8 11 1015.9 1015.7 0.0
04/11:30am 31.7 28.2 8.7 24 12.8 SSE 17 20 9 11 1016.1 - 0.0
04/11:00am 30.1 26.3 9.1 27 11.7 SSE 19 24 10 13 1016.2 - 0.0
04/10:30am 29.6 25.1 10.2 30 11.0 SSE 24 30 13 16 1016.4 - 0.0
04/10:00am 29.7 25.0 10.8 31 10.8 SSE 26 32 14 17 1016.3 - 0.0
04/09:30am 28.0 24.2 11.1 35 9.7 SSE 22 28 12 15 1016.2 - 0.0
04/09:00am 26.7 22.1 11.2 38 8.8 SSE 26 32 14 17 1015.9 1015.7 0.0
04/08:30am 25.7 21.3 11.8 42 7.9 S 26 33 14 18 1015.6 - 0.0
04/08:00am 24.7 20.4 12.0 45 7.3 S 26 32 14 17 1015.3 - 0.0
04/07:30am 24.2 20.5 12.8 49 6.6 S 24 30 13 16 1014.6 - 0.0
04/07:00am 24.3 20.4 13.2 50 6.5 S 26 33 14 18 1013.9 - 0.0
04/06:30am 24.8 20.6 13.4 49 6.7 S 28 35 15 19 1013.4 - 0.0
04/06:00am 25.2 20.5 13.1 47 7.1 S 30 35 16 19 1013.3 1013.0 0.0
04/05:30am 25.5 22.1 12.4 44 7.6 S 22 28 12 15 1012.9 - 0.0
04/05:00am 26.0 22.4 11.7 41 8.2 S 22 28 12 15 1012.8 - 0.0
04/04:30am 26.5 22.7 11.0 38 8.8 S 22 28 12 15 1012.7 - 0.0
04/04:00am 27.0 23.1 10.7 36 9.2 S 22 28 12 15 1012.7 - 0.0
04/03:30am 27.2 23.6 10.4 35 9.4 S 20 24 11 13 1013.0 - 0.0
04/03:00am 27.7 23.7 10.4 34 9.8 S 22 30 12 16 1013.2 1012.9 0.0
04/02:30am 28.3 24.3 10.5 33 10.1 S 22 28 12 15 1013.5 - 0.0
04/02:00am 29.0 24.9 10.2 31 10.6 S 22 28 12 15 1013.6 - 0.0
04/01:30am 29.5 25.4 10.1 30 11.0 S 22 28 12 15 1013.7 - 0.0
04/01:00am 30.0 25.4 9.5 28 11.5 S 24 30 13 16 1013.7 - 0.0
04/12:30am 30.3 26.0 9.2 27 11.8 S 22 28 12 15 1013.9 - 0.0
04/12:00am 30.9 27.1 9.7 27 12.0 SSE 20 26 11 14 1014.0 1013.7 0.0
 
Date/Time
CDT
Temp
°C
App
Temp
°C
Dew
Point
Rel
Hum
%
Delta-T
°C
Wind Press
QNH
hPa
Press
MSL
hPa
Rain
since 9 am
mm
Dir
 
Spd
km/h
Gust
km/h
Spd
kts
Gust
kts
03/11:30pm 31.3 27.0 9.5 26 12.3 SSE 22 28 12 15 1014.2 - 0.0
03/11:00pm 31.5 26.8 9.1 25 12.6 SSE 24 30 13 16 1014.1 - 0.0
03/10:30pm 32.0 26.9 7.6 22 13.4 SSE 24 30 13 16 1014.1 - 0.0
03/10:00pm 32.5 26.6 7.4 21 13.8 S 28 35 15 19 1013.7 - 0.0
03/09:30pm 33.4 26.5 7.4 20 14.4 S 33 41 18 22 1013.2 - 0.0
03/09:00pm 34.3 27.4 6.6 18 15.2 S 32 37 17 20 1012.7 1012.4 0.0
03/08:30pm 34.7 27.3 6.9 18 15.3 S 35 43 19 23 1012.2 - 0.0
03/08:00pm 35.4 27.2 4.8 15 16.4 S 37 46 20 25 1011.9 - 0.0
03/07:30pm 36.3 28.4 2.4 12 17.6 S 33 43 18 23 1011.6 - 0.0
03/07:00pm 37.3 30.1 0.6 10 18.6 S 28 35 15 19 1011.2 - 0.0
03/06:30pm 38.2 31.1 1.3 10 19.0 S 28 39 15 21 1010.9 - 0.0
03/06:00pm 38.3 30.4 1.3 10 19.1 S 32 41 17 22 1010.8 1010.5 0.0
03/05:30pm 38.6 31.7 0.1 9 19.5 S 26 41 14 22 1010.9 - 0.0
03/05:00pm 39.6 34.5 0.9 9 20.0 SSE 17 26 9 14 1010.8 - 0.0
03/04:30pm 39.8 35.1 1.0 9 20.1 S 15 26 8 14 1010.8 - 0.0
03/04:00pm 39.2 33.5 0.6 9 19.8 SSE 20 28 11 15 1010.9 - 0.0
03/03:30pm 39.5 35.5 0.8 9 19.9 S 11 24 6 13 1011.1 - 0.0
03/03:00pm 38.8 33.6 0.3 9 19.6 SSW 17 39 9 21 1011.4 1011.1 0.0
03/02:30pm 38.8 34.2 -1.4 8 19.9 SSE 13 30 7 16 1011.7 - 0.0
03/02:00pm 38.6 33.6 -1.5 8 19.8 SSE 15 26 8 14 1012.0 - 0.0
03/01:30pm 37.1 31.7 -1.0 9 18.8 S 17 28 9 15 1012.5 - 0.0
03/01:00pm 36.4 31.0 -1.5 9 18.5 SSE 17 26 9 14 1012.9 - 0.0
03/12:30pm 35.5 30.0 -2.2 9 18.1 SE 17 28 9 15 1013.3 - 0.0
03/12:00pm 34.6 29.0 -2.9 9 17.6 SE 17 30 9 16 1013.7 1013.4 0.0
03/11:30am 33.5 27.4 -2.3 10 16.9 ESE 20 26 11 14 1014.0 - 0.0
03/11:00am 32.6 26.8 -1.7 11 16.2 ESE 19 24 10 13 1014.1 - 0.0
03/10:30am 31.1 25.1 -1.6 12 15.3 SE 20 26 11 14 1014.1 - 0.0
03/10:00am 30.6 24.5 -2.0 12 15.1 ESE 20 26 11 14 1014.1 - 0.0
03/09:30am 29.8 23.8 -1.5 13 14.6 SE 20 28 11 15 1013.9 - 0.0
03/09:00am 28.4 22.7 -0.7 15 13.6 SE 19 24 10 13 1013.5 1013.2 0.0
03/08:30am 26.3 21.5 0.1 18 12.2 SSE 15 19 8 10 1013.3 - 0.0
03/08:00am 24.6 19.8 0.2 20 11.3 SSE 15 17 8 9 1013.0 - 0.0
03/07:30am 23.8 19.0 0.2 21 10.8 SSE 15 19 8 10 1012.4 - 0.0
03/07:00am 23.1 17.8 -0.4 21 10.6 SSE 17 19 9 10 1012.0 - 0.0
03/06:30am 21.7 16.4 -0.9 22 10.0 SSE 17 19 9 10 1011.6 - 0.0
03/06:00am 21.6 16.2 -1.0 22 10.0 SSE 17 19 9 10 1011.3 1011.0 0.0
03/05:30am 22.0 16.6 -1.3 21 10.2 SSE 17 19 9 10 1011.1 - 0.0
03/05:00am 22.1 17.0 -1.9 20 10.4 SSE 15 17 8 9 1011.0 - 0.0
03/04:30am 21.9 17.2 -2.0 20 10.3 SE 13 15 7 8 1010.8 - 0.0
03/04:00am 22.0 17.3 -2.0 20 10.4 SE 13 15 7 8 1010.8 - 0.0
03/03:30am 23.6 18.5 -2.1 18 11.3 S 15 17 8 9 1011.1 - 0.0
03/03:00am 23.8 18.3 -1.9 18 11.3 S 17 17 9 9 1011.3 1011.0 0.0
03/02:30am 24.0 18.8 -2.5 17 11.6 SSE 15 17 8 9 1011.3 - 0.0
03/02:00am 24.7 19.5 -2.8 16 12.0 SSE 15 19 8 10 1011.6 - 0.0
03/01:30am 25.1 20.2 -3.3 15 12.3 SSE 13 15 7 8 1012.0 - 0.0
03/01:00am 26.2 20.5 -3.4 14 12.9 SE 17 20 9 11 1012.1 - 0.0
03/12:30am 27.0 20.9 -3.7 13 13.4 SSE 19 24 10 13 1012.2 - 0.0
03/12:00am 28.0 21.9 -4.0 12 14.1 S 19 20 10 11 1012.1 1011.8 0.0
 
Date/Time
CDT
Temp
°C
App
Temp
°C
Dew
Point
Rel
Hum
%
Delta-T
°C
Wind Press
QNH
hPa
Press
MSL
hPa
Rain
since 9 am
mm
Dir
 
Spd
km/h
Gust
km/h
Spd
kts
Gust
kts
02/11:30pm 28.2 22.9 -3.9 12 14.1 S 15 17 8 9 1011.9 - 0.0
02/11:00pm 28.9 23.9 -4.5 11 14.6 S 13 15 7 8 1011.8 - 0.0
02/10:30pm 29.7 23.9 -5.1 10 15.2 S 17 20 9 11 1011.7 - 0.0
02/10:00pm 30.4 24.0 -4.6 10 15.5 S 20 24 11 13 1011.5 - 0.0
02/09:30pm 31.3 24.6 -3.9 10 15.9 S 22 28 12 15 1010.9 - 0.0
02/09:00pm 31.5 25.6 -2.5 11 15.8 S 19 22 10 12 1010.5 1010.2 0.0
02/08:30pm 32.4 26.4 -3.1 10 16.4 S 19 22 10 12 1010.0 - 0.0
02/08:00pm 33.3 26.2 -1.1 11 16.5 S 26 30 14 16 1009.5 - 0.0
02/07:30pm 34.4 26.7 -0.3 11 17.0 S 30 35 16 19 1009.3 - 0.0
02/07:00pm 35.7 29.1 -0.6 10 17.9 S 24 33 13 18 1009.0 - 0.0
02/06:30pm 36.5 30.1 -1.4 9 18.5 S 22 28 12 15 1008.5 - 0.0
02/06:00pm 36.3 31.6 -1.6 9 18.5 S 13 24 7 13 1008.5 1008.3 0.0
02/05:30pm 37.1 31.4 -1.0 9 18.8 SE 19 26 10 14 1008.3 - 0.0
02/05:00pm 36.6 31.6 -1.4 9 18.6 S 15 26 8 14 1008.4 - 0.0
02/04:30pm 36.8 32.2 -1.2 9 18.7 ESE 13 20 7 11 1008.6 - 0.0
02/04:00pm 35.9 31.2 -1.9 9 18.2 SE 13 26 7 14 1008.8 - 0.0
02/03:30pm 35.8 31.3 -0.5 10 17.9 SE 13 24 7 13 1009.3 - 0.0
02/03:00pm 36.1 32.2 1.0 11 17.8 SSE 11 19 6 10 1009.7 1009.5 0.0
02/02:30pm 34.7 30.0 1.1 12 16.9 SSE 15 22 8 12 1010.0 - 0.0
02/02:00pm 34.6 31.3 2.2 13 16.6 ESE 9 17 5 9 1010.3 - 0.0
02/01:30pm 34.5 29.6 2.1 13 16.5 SE 17 28 9 15 1010.5 - 0.0
02/01:00pm 33.7 28.1 1.5 13 16.2 E 20 30 11 16 1010.9 - 0.0
02/12:30pm 32.4 25.9 0.5 13 15.6 E 24 32 13 17 1011.3 - 0.0
02/12:00pm 32.4 26.1 1.5 14 15.4 ESE 24 33 13 18 1011.8 1011.5 0.0
02/11:30am 31.4 24.7 1.7 15 14.8 E 26 33 14 18 1012.4 - 0.0
02/11:00am 30.7 23.9 1.1 15 14.5 E 26 37 14 20 1012.6 - 0.0
02/10:30am 30.1 22.6 1.5 16 14.0 E 30 39 16 21 1012.7 - 0.0
02/10:00am 28.6 21.6 2.0 18 13.0 E 28 35 15 19 1012.6 - 0.0
02/09:30am 27.1 20.5 2.2 20 12.1 E 26 35 14 19 1012.6 - 0.0
02/09:00am 24.2 19.3 1.8 23 10.6 SE 17 20 9 11 1012.6 1012.3 0.0
02/08:30am 22.6 18.0 1.6 25 9.8 SSE 15 20 8 11 1012.5 - 0.0
02/08:00am 20.7 16.1 1.6 28 8.8 SSE 15 17 8 9 1012.2 - 0.0
02/07:30am 20.2 14.9 1.6 29 8.5 SSE 19 22 10 12 1011.8 - 0.0
02/07:00am 20.7 15.4 1.6 28 8.8 SSE 19 22 10 12 1011.6 - 0.0
02/06:30am 20.7 15.4 1.6 28 8.8 SSE 19 22 10 12 1011.4 - 0.0
02/06:00am 20.7 15.4 1.6 28 8.8 SSE 19 22 10 12 1011.3 1011.0 0.0
02/05:30am 20.4 15.0 1.3 28 8.7 SSE 19 20 10 11 1011.0 - 0.0
02/05:00am 19.9 14.4 0.9 28 8.6 SSE 19 20 10 11 1010.8 - 0.0
02/04:30am 20.0 14.9 0.5 27 8.7 SSE 17 19 9 10 1010.9 - 0.0
02/04:00am 20.9 16.2 0.7 26 9.1 SSE 15 19 8 10 1011.0 - 0.0
02/03:30am 19.3 14.6 0.8 29 8.3 SSE 15 17 8 9 1011.2 - 0.0
02/03:00am 19.7 15.0 0.7 28 8.5 SSE 15 17 8 9 1011.0 1010.7 0.0
02/02:30am 20.8 16.1 1.1 27 9.0 SSE 15 17 8 9 1011.2 - 0.0
02/02:00am 22.1 16.8 1.7 26 9.5 SSE 19 20 10 11 1011.3 - 0.0
02/01:30am 22.1 17.2 2.2 27 9.4 SSE 17 19 9 10 1011.8 - 0.0
02/01:00am 22.7 18.3 2.8 27 9.5 S 15 17 8 9 1011.8 - 0.0
02/12:30am 22.7 18.7 2.8 27 9.5 SSE 13 15 7 8 1011.6 - 0.0
02/12:00am 23.4 19.4 2.8 26 9.9 SSE 13 13 7 7 1011.8 1011.5 0.0
 
Date/Time
CDT
Temp
°C
App
Temp
°C
Dew
Point
Rel
Hum
%
Delta-T
°C
Wind Press
QNH
hPa
Press
MSL
hPa
Rain
since 9 am
mm
Dir
 
Spd
km/h
Gust
km/h
Spd
kts
Gust
kts
01/11:30pm 24.6 20.8 3.8 26 10.3 SE 13 15 7 8 1011.8 - 0.0
01/11:00pm 25.8 22.3 3.7 24 11.0 ESE 11 13 6 7 1012.0 - 0.0
01/10:30pm 27.6 22.7 4.0 22 11.9 ESE 19 20 10 11 1011.8 - 0.0
01/10:00pm 28.7 23.2 4.2 21 12.5 E 22 30 12 16 1011.4 - 0.0
01/09:30pm 30.0 24.2 4.6 20 13.1 ESE 24 37 13 20 1011.1 - 0.0
01/09:00pm 30.6 25.7 5.1 20 13.4 SSE 20 26 11 14 1010.6 1010.3 0.0
01/08:30pm 32.0 26.3 3.1 16 14.8 S 22 26 12 14 1009.8 - 0.0
01/08:00pm 32.9 27.4 3.8 16 15.1 S 22 28 12 15 1009.5 - 0.0
01/07:30pm 33.9 28.9 4.6 16 15.5 S 20 26 11 14 1009.5 - 0.0
01/07:00pm 34.6 29.7 5.1 16 15.8 S 20 32 11 17 1009.3 - 0.0

Other Formats:

Comma delimited format used in spreadsheet applications
http://www.bom.gov.au/fwo/IDS60801/IDS60801.95480.axf

JavaScript Object Notation format (JSON) in row-major order
http://www.bom.gov.au/fwo/IDS60801/IDS60801.95480.json